createdAt,value
2023-06-06T00:04:05.524Z,16.37
2023-06-06T00:09:07.813Z,13.27
2023-06-06T00:14:11.161Z,15.30
2023-06-06T00:19:14.491Z,16.07
2023-06-06T00:24:17.154Z,15.98
2023-06-06T00:29:19.383Z,14.60
2023-06-06T00:34:21.542Z,14.73
2023-06-06T00:39:23.878Z,16.33
2023-06-06T00:44:26.177Z,16.30
2023-06-06T00:49:28.852Z,16.90
2023-06-06T00:54:32.938Z,13.53
2023-06-06T00:59:36.508Z,13.85
2023-06-06T01:04:42.220Z,13.93
2023-06-06T01:09:46.709Z,16.00
2023-06-06T01:14:53.810Z,14.63
2023-06-06T01:19:57.592Z,13.90
2023-06-06T01:25:00.037Z,18.27
2023-06-06T01:30:03.900Z,14.20
2023-06-06T01:35:17.500Z,18.12
2023-06-06T01:40:22.411Z,17.20
2023-06-06T01:45:30.820Z,13.37
2023-06-06T01:50:36.666Z,14.98
2023-06-06T01:55:39.532Z,15.18
2023-06-06T02:00:41.797Z,15.13
2023-06-06T02:05:47.056Z,14.52
2023-06-06T02:10:49.260Z,13.27
2023-06-06T02:15:51.848Z,12.63
2023-06-06T02:20:54.058Z,12.88
2023-06-06T02:25:56.400Z,12.57
2023-06-06T02:30:58.651Z,12.73
2023-06-06T02:36:01.748Z,12.70
2023-06-06T02:41:04.265Z,11.90
2023-06-06T02:46:06.635Z,14.38
2023-06-06T02:51:09.133Z,12.77
2023-06-06T02:56:15.620Z,15.15
2023-06-06T03:01:22.242Z,12.93
2023-06-06T03:06:24.583Z,11.85
2023-06-06T03:11:27.107Z,12.98
2023-06-06T03:16:29.565Z,13.15
2023-06-06T03:21:32.164Z,13.98
2023-06-06T03:26:34.351Z,12.43
2023-06-06T03:31:36.604Z,17.23
2023-06-06T03:36:38.801Z,13.70
2023-06-06T03:41:40.945Z,13.10
2023-06-06T03:46:43.650Z,13.05
2023-06-06T03:51:46.047Z,12.63
2023-06-06T03:56:48.311Z,12.05
2023-06-06T04:01:54.466Z,12.20
2023-06-06T04:06:58.109Z,12.98
2023-06-06T04:12:00.581Z,15.43
2023-06-06T04:17:03.476Z,13.30
2023-06-06T04:22:06.662Z,14.80
2023-06-06T04:27:09.288Z,13.50
2023-06-06T04:32:14.518Z,14.02
2023-06-06T04:37:18.680Z,15.70
2023-06-06T04:42:22.321Z,14.30
2023-06-06T04:47:24.782Z,14.87
2023-06-06T04:52:27.049Z,16.62
2023-06-06T04:57:29.273Z,14.63
2023-06-06T05:02:31.465Z,15.02
2023-06-06T05:07:33.731Z,14.40
2023-06-06T05:12:35.991Z,15.02
2023-06-06T05:17:38.303Z,14.93
2023-06-06T05:22:40.655Z,14.60
2023-06-06T05:27:42.952Z,15.82
2023-06-06T05:32:45.267Z,18.00
2023-06-06T05:37:47.647Z,15.35
2023-06-06T05:42:49.834Z,14.68
2023-06-06T05:47:52.084Z,16.48
2023-06-06T05:52:54.922Z,15.68
2023-06-06T05:57:57.490Z,15.93
2023-06-06T06:03:01.636Z,16.45
2023-06-06T06:08:05.526Z,14.30
2023-06-06T06:13:07.786Z,16.90
2023-06-06T06:18:10.112Z,16.12
2023-06-06T06:23:12.345Z,15.30
2023-06-06T06:28:22.159Z,16.55
2023-06-06T06:33:24.745Z,17.02
2023-06-06T06:38:27.003Z,14.90
2023-06-06T06:43:29.255Z,18.30
2023-06-06T06:48:37.607Z,17.50
2023-06-06T06:53:40.849Z,18.73
2023-06-06T06:58:43.418Z,16.98
2023-06-06T07:03:47.714Z,16.77
2023-06-06T07:08:50.829Z,19.20
2023-06-06T07:13:53.065Z,18.73
2023-06-06T07:18:55.385Z,20.42
2023-06-06T07:23:57.724Z,17.00
2023-06-06T07:29:00.289Z,18.73
2023-06-06T07:34:03.697Z,19.45
2023-06-06T07:39:06.215Z,18.97
2023-06-06T07:44:08.464Z,20.90
2023-06-06T07:49:10.978Z,22.05
2023-06-06T07:54:13.193Z,23.53
2023-06-06T07:59:15.363Z,22.15
2023-06-06T08:04:17.625Z,20.87
2023-06-06T08:09:19.869Z,23.60
2023-06-06T08:14:22.065Z,21.58
2023-06-06T08:19:24.658Z,24.97
2023-06-06T08:24:26.816Z,21.58
2023-06-06T08:29:29.022Z,24.03
2023-06-06T08:34:31.728Z,29.00
2023-06-06T08:39:33.945Z,24.73
2023-06-06T08:44:37.669Z,25.27
2023-06-06T08:49:40.206Z,23.70
2023-06-06T08:54:43.562Z,21.70
2023-06-06T08:59:45.772Z,20.83
2023-06-06T09:04:49.504Z,21.65
2023-06-06T09:09:53.432Z,19.43
2023-06-06T09:14:55.666Z,20.62
2023-06-06T09:20:00.249Z,24.57
2023-06-06T09:25:02.868Z,21.00
2023-06-06T09:30:05.560Z,22.52
2023-06-06T09:35:08.055Z,22.93
2023-06-06T09:40:18.871Z,22.02
2023-06-06T09:45:21.666Z,24.80
2023-06-06T09:50:24.164Z,24.60
2023-06-06T09:55:26.662Z,23.12
2023-06-06T10:00:30.277Z,24.07
2023-06-06T10:05:33.249Z,24.45
2023-06-06T10:10:35.675Z,23.77
2023-06-06T10:15:38.573Z,22.25
2023-06-06T10:20:43.608Z,23.10
2023-06-06T10:25:47.923Z,22.53
2023-06-06T10:31:21.574Z,21.08
2023-06-06T10:36:24.439Z,20.27
2023-06-06T10:41:26.949Z,18.55
2023-06-06T10:46:29.294Z,18.45
2023-06-06T10:51:36.505Z,17.50
2023-06-06T10:56:44.983Z,16.33
2023-06-06T11:01:47.566Z,22.13
2023-06-06T11:06:52.756Z,12.00
2023-06-06T11:12:13.390Z,11.32
2023-06-06T11:17:15.871Z,12.20
2023-06-06T11:22:23.602Z,13.52
2023-06-06T11:27:27.283Z,10.40
2023-06-06T11:32:29.587Z,9.32
2023-06-06T11:37:32.978Z,10.27
2023-06-06T11:42:35.477Z,9.45
2023-06-06T11:47:37.755Z,10.35
2023-06-06T11:52:50.050Z,9.93
2023-06-06T11:57:52.748Z,11.00
2023-06-06T12:02:57.444Z,11.75
2023-06-06T12:08:01.134Z,13.80
2023-06-06T12:13:03.754Z,12.95
2023-06-06T12:18:06.156Z,20.43
2023-06-06T12:23:08.473Z,15.32
2023-06-06T12:28:11.869Z,14.52
2023-06-06T12:33:14.129Z,14.82
2023-06-06T12:38:21.093Z,15.75
2023-06-06T12:43:23.772Z,14.30
2023-06-06T12:48:27.221Z,16.48
2023-06-06T12:53:29.689Z,16.00
2023-06-06T12:58:35.832Z,18.13
2023-06-06T13:03:39.727Z,20.17
2023-06-06T13:08:42.760Z,16.50
2023-06-06T13:13:45.981Z,16.45
2023-06-06T13:18:48.206Z,15.88
2023-06-06T13:23:53.351Z,14.83
2023-06-06T13:28:56.451Z,15.50
2023-06-06T13:33:58.808Z,16.60
2023-06-06T13:39:01.479Z,15.07
2023-06-06T13:44:05.018Z,15.60
2023-06-06T13:49:07.219Z,16.67
2023-06-06T13:54:11.727Z,18.58
2023-06-06T13:59:15.472Z,17.37
2023-06-06T14:04:18.026Z,17.67
2023-06-06T14:09:22.012Z,17.40
2023-06-06T14:14:25.124Z,16.63
2023-06-06T14:19:50.097Z,17.33
2023-06-06T14:24:54.245Z,18.40
2023-06-06T14:29:57.614Z,17.85
2023-06-06T14:35:06.637Z,19.02
2023-06-06T14:40:12.052Z,17.80
2023-06-06T14:45:15.743Z,18.65
2023-06-06T14:50:18.009Z,17.07
2023-06-06T14:55:20.480Z,19.23
2023-06-06T15:00:24.212Z,20.62
2023-06-06T15:05:28.464Z,18.90
2023-06-06T15:10:30.703Z,18.12
2023-06-06T15:15:33.107Z,20.13
2023-06-06T15:20:35.815Z,19.15
2023-06-06T15:25:38.029Z,19.08
2023-06-06T15:30:40.177Z,19.37
2023-06-06T15:35:42.399Z,17.58
2023-06-06T15:40:48.729Z,17.80
2023-06-06T15:45:51.252Z,18.10
2023-06-06T15:50:54.023Z,17.58
2023-06-06T15:55:56.676Z,20.10
2023-06-06T16:00:59.523Z,16.45
2023-06-06T16:06:01.852Z,16.47
2023-06-06T16:11:06.289Z,17.75
2023-06-06T16:16:08.771Z,18.58
2023-06-06T16:21:11.684Z,16.17
2023-06-06T16:26:13.910Z,16.37
2023-06-06T16:31:16.229Z,16.93
2023-06-06T16:36:19.556Z,16.73
2023-06-06T16:41:23.272Z,17.40
2023-06-06T16:46:25.585Z,15.70
2023-06-06T16:51:27.880Z,15.32
2023-06-06T16:56:30.075Z,15.40
2023-06-06T17:01:32.487Z,16.73
2023-06-06T17:06:34.786Z,16.05
2023-06-06T17:11:37.052Z,16.37
2023-06-06T17:16:39.333Z,15.55
2023-06-06T17:21:42.473Z,16.63
2023-06-06T17:26:44.844Z,15.30
2023-06-06T17:31:47.803Z,12.73
2023-06-06T17:36:50.170Z,14.70
2023-06-06T17:41:52.481Z,15.45
2023-06-06T17:46:54.897Z,15.50
2023-06-06T17:51:57.248Z,14.27
2023-06-06T17:56:59.435Z,12.88
2023-06-06T18:02:01.638Z,19.15
2023-06-06T18:07:04.581Z,19.87
2023-06-06T18:12:07.990Z,17.03
2023-06-06T18:17:10.660Z,14.93
2023-06-06T18:22:13.031Z,14.32
2023-06-06T18:27:15.235Z,13.62
2023-06-06T18:32:18.612Z,13.38
2023-06-06T18:37:21.644Z,12.23
2023-06-06T18:42:23.985Z,11.93
2023-06-06T18:47:27.879Z,11.52
2023-06-06T18:52:30.130Z,12.13
2023-06-06T18:57:32.650Z,13.77
2023-06-06T19:02:36.521Z,13.97
2023-06-06T19:07:39.082Z,11.32
2023-06-06T19:17:46.989Z,17.45
2023-06-06T19:22:49.453Z,22.08
2023-06-06T19:27:52.090Z,38.87
2023-06-06T19:32:54.465Z,28.02
2023-06-06T19:37:56.672Z,20.37
2023-06-06T19:42:58.888Z,22.80
2023-06-06T19:48:01.107Z,20.15
2023-06-06T19:53:04.041Z,21.27
2023-06-06T19:58:07.661Z,21.12
2023-06-06T20:03:10.273Z,17.05
2023-06-06T20:08:12.642Z,16.50
2023-06-06T20:13:14.830Z,23.65
2023-06-06T20:18:17.542Z,19.50
2023-06-06T20:23:19.800Z,22.45
2023-06-06T20:28:22.131Z,19.62
2023-06-06T20:33:24.594Z,18.02
2023-06-06T20:38:27.393Z,19.55
2023-06-06T20:43:29.676Z,17.63
2023-06-06T20:48:31.955Z,18.70
2023-06-06T20:53:34.286Z,19.55
2023-06-06T20:58:36.491Z,19.05
2023-06-06T21:03:38.822Z,20.65
2023-06-06T21:08:41.472Z,22.23
2023-06-06T21:13:43.840Z,24.05
2023-06-06T21:18:46.083Z,23.23
2023-06-06T21:23:51.773Z,20.52
2023-06-06T21:28:53.999Z,19.60
2023-06-06T21:33:56.285Z,20.20
2023-06-06T21:38:58.612Z,19.58
2023-06-06T21:44:00.906Z,19.52
2023-06-06T21:49:03.798Z,16.47
2023-06-06T21:54:05.975Z,14.20
2023-06-06T21:59:08.272Z,15.30
2023-06-06T22:04:10.484Z,16.92
2023-06-06T22:09:13.341Z,16.12
2023-06-06T22:14:15.578Z,14.60
2023-06-06T22:19:17.900Z,15.73
2023-06-06T22:24:20.157Z,16.83
2023-06-06T22:29:22.523Z,18.15
2023-06-06T22:34:24.680Z,12.65
2023-06-06T22:39:26.943Z,13.70
2023-06-06T22:44:29.148Z,15.05
2023-06-06T22:49:31.431Z,13.60
2023-06-06T22:54:33.619Z,15.40
2023-06-06T22:59:35.940Z,13.80
2023-06-06T23:04:38.168Z,14.07
2023-06-06T23:09:40.333Z,11.98
2023-06-06T23:14:42.510Z,12.77
2023-06-06T23:19:44.714Z,13.65
2023-06-06T23:24:47.607Z,14.00
2023-06-06T23:29:49.769Z,14.90
2023-06-06T23:34:51.984Z,15.07
2023-06-06T23:39:55.100Z,12.47
2023-06-06T23:44:57.437Z,13.43
2023-06-06T23:49:59.682Z,15.10
2023-06-06T23:55:01.947Z,14.85
